Startpagina
METAR-TAF:

METAR-TAF

Vliegvelden :

San Juan De Los Morros, Venezuela

breedte: 09-55N, lengte: 067-20W, hoogte: 429 m

Actueel weer

Dit bericht is 52 minuten geleden gemaakt, om 19:02 UTC
Wind 4 kt uit het westen
Temperatuur 32°C
Vochtigheid 52%
Druk 1010 hPa

METAR: SVJM 191902Z AUTO 27004KT NCD 32/21 Q1010

Tijdstip: 15:54 (19:54 UTC)


TAF: ontbreekt

Waarnemingen en weersverwachtingen van meer dan 4000 vliegvelden (METAR en TAF).

De beschikbare stations zijn de gele en rode punten op de kaart.

Ga met uw muis naar het station om de naam te zien.

Klik dan om waarnemingen en weersverwachtingen te zien.

kaart wijzigen: klik op de groene knoppen met een zwart kruis om in te zoomen, op de groene knop met een streepje om uit te zoomen of op de groene pijlen voor aangrenzende kaarten.


METAR-TAF: